createdAt,value
2023-11-30T00:00:03.900Z,41.30
2023-11-30T00:03:12.938Z,36.60
2023-11-30T00:06:00.929Z,34.70
2023-11-30T00:08:48.977Z,47.00
2023-11-30T00:11:36.714Z,46.70
2023-11-30T00:14:24.214Z,44.60
2023-11-30T00:17:12.291Z,43.50
2023-11-30T00:20:00.082Z,41.30
2023-11-30T00:22:48.370Z,42.30
2023-11-30T00:25:35.927Z,43.80
2023-11-30T00:28:23.449Z,41.20
2023-11-30T00:31:11.111Z,37.70
2023-11-30T00:33:58.989Z,38.40
2023-11-30T00:36:46.661Z,39.20
2023-11-30T00:39:35.000Z,34.80
2023-11-30T00:42:22.855Z,50.30
2023-11-30T00:45:11.458Z,41.20
2023-11-30T00:47:59.562Z,49.10
2023-11-30T00:50:47.325Z,44.60
2023-11-30T00:53:35.213Z,47.30
2023-11-30T00:56:22.884Z,40.30
2023-11-30T00:59:10.433Z,51.80
2023-11-30T01:01:57.914Z,47.90
2023-11-30T01:04:45.690Z,46.90
2023-11-30T01:07:33.481Z,47.00
2023-11-30T01:10:20.931Z,42.60
2023-11-30T01:13:09.269Z,44.00
2023-11-30T01:15:57.084Z,51.30
2023-11-30T01:18:45.084Z,46.50
2023-11-30T01:21:33.255Z,40.40
2023-11-30T01:24:21.137Z,39.30
2023-11-30T01:27:09.255Z,45.70
2023-11-30T01:29:56.964Z,42.80
2023-11-30T01:32:44.867Z,43.40
2023-11-30T01:35:32.711Z,45.40
2023-11-30T01:38:20.412Z,46.70
2023-11-30T01:41:08.763Z,41.40
2023-11-30T01:43:56.261Z,42.60
2023-11-30T01:46:44.036Z,44.80
2023-11-30T01:49:32.520Z,44.80
2023-11-30T01:52:20.399Z,42.60
2023-11-30T01:55:10.835Z,37.80
2023-11-30T01:57:59.426Z,43.90
2023-11-30T02:00:48.822Z,33.90
2023-11-30T02:03:38.648Z,43.30
2023-11-30T02:06:26.835Z,45.70
2023-11-30T02:09:16.279Z,41.40
2023-11-30T02:12:04.299Z,49.20
2023-11-30T02:14:52.348Z,45.70
2023-11-30T02:17:40.468Z,46.30
2023-11-30T02:20:28.120Z,44.50
2023-11-30T02:23:16.025Z,42.30
2023-11-30T02:26:03.969Z,41.30
2023-11-30T02:28:51.785Z,42.40
2023-11-30T02:31:39.594Z,40.40
2023-11-30T02:34:27.379Z,31.90
2023-11-30T02:37:14.867Z,45.70
2023-11-30T02:40:02.868Z,48.90
2023-11-30T02:42:50.306Z,42.30
2023-11-30T02:45:37.749Z,42.30
2023-11-30T02:48:25.314Z,44.70
2023-11-30T02:51:13.609Z,42.60
2023-11-30T02:54:01.306Z,42.30
2023-11-30T02:56:49.021Z,40.20
2023-11-30T02:59:36.688Z,37.30
2023-11-30T03:02:26.713Z,42.90
2023-11-30T03:05:15.863Z,43.80
2023-11-30T03:08:03.276Z,45.20
2023-11-30T03:10:52.362Z,46.30
2023-11-30T03:13:41.812Z,43.80
2023-11-30T03:16:30.047Z,39.50
2023-11-30T03:19:18.280Z,40.50
2023-11-30T03:22:05.908Z,41.40
2023-11-30T03:24:54.146Z,39.80
2023-11-30T03:27:43.167Z,40.30
2023-11-30T03:30:31.658Z,35.90
2023-11-30T03:33:19.232Z,38.40
2023-11-30T03:36:07.658Z,42.30
2023-11-30T03:38:57.175Z,40.70
2023-11-30T03:41:44.862Z,43.70
2023-11-30T03:44:33.716Z,43.10
2023-11-30T03:47:21.326Z,43.30
2023-11-30T03:50:09.613Z,40.10
2023-11-30T03:52:58.265Z,40.90
2023-11-30T03:55:46.368Z,45.50
2023-11-30T03:58:34.135Z,32.10
2023-11-30T04:01:24.076Z,39.70
2023-11-30T04:04:11.878Z,40.40
2023-11-30T04:06:59.977Z,43.50
2023-11-30T04:09:48.732Z,43.10
2023-11-30T04:12:36.528Z,42.10
2023-11-30T04:15:24.737Z,39.40
2023-11-30T04:18:13.375Z,46.00
2023-11-30T04:21:01.480Z,46.00
2023-11-30T04:23:49.117Z,46.00
2023-11-30T04:26:37.345Z,40.70
2023-11-30T04:29:25.110Z,42.00
2023-11-30T04:32:13.084Z,51.90
2023-11-30T04:35:01.046Z,42.50
2023-11-30T04:37:48.983Z,43.60
2023-11-30T04:40:36.659Z,42.60
2023-11-30T04:43:26.765Z,42.00
2023-11-30T04:46:15.696Z,44.10
2023-11-30T04:49:03.333Z,40.70
2023-11-30T04:51:51.390Z,39.40
2023-11-30T04:54:39.438Z,38.40
2023-11-30T04:57:27.495Z,30.10
2023-11-30T05:00:16.179Z,43.70
2023-11-30T05:03:04.166Z,46.00
2023-11-30T05:05:52.645Z,39.90
2023-11-30T05:08:40.092Z,49.60
2023-11-30T05:11:27.595Z,42.30
2023-11-30T05:14:15.471Z,44.10
2023-11-30T05:17:04.102Z,38.40
2023-11-30T05:19:51.662Z,38.30
2023-11-30T05:22:39.462Z,33.10
2023-11-30T05:25:27.259Z,44.80
2023-11-30T05:28:14.877Z,43.80
2023-11-30T05:31:02.756Z,49.60
2023-11-30T05:33:50.555Z,48.80
2023-11-30T05:36:37.973Z,49.50
2023-11-30T05:39:25.630Z,47.20
2023-11-30T05:42:13.575Z,45.60
2023-11-30T05:45:01.383Z,34.80
2023-11-30T05:47:49.219Z,50.60
2023-11-30T05:50:37.013Z,51.50
2023-11-30T05:53:24.809Z,51.70
2023-11-30T05:56:12.442Z,50.30
2023-11-30T05:59:00.251Z,41.40
2023-11-30T06:01:49.673Z,37.70
2023-11-30T06:04:39.882Z,45.10
2023-11-30T06:07:27.705Z,33.00
2023-11-30T06:10:16.441Z,40.10
2023-11-30T06:13:04.654Z,47.80
2023-11-30T06:15:53.925Z,55.70
2023-11-30T06:18:42.092Z,48.20
2023-11-30T06:21:29.930Z,54.00
2023-11-30T06:24:17.835Z,43.70
2023-11-30T06:27:05.828Z,44.50
2023-11-30T06:29:54.030Z,41.30
2023-11-30T06:32:41.650Z,41.10
2023-11-30T06:35:29.116Z,41.30
2023-11-30T06:38:17.165Z,41.00
2023-11-30T06:41:14.352Z,43.70
2023-11-30T06:44:02.370Z,36.80
2023-11-30T06:46:50.531Z,45.00
2023-11-30T06:49:38.609Z,43.70
2023-11-30T06:52:26.399Z,52.30
2023-11-30T06:55:14.178Z,49.80
2023-11-30T06:58:02.239Z,43.30
2023-11-30T07:00:51.134Z,38.50
2023-11-30T07:03:42.797Z,46.00
2023-11-30T07:06:31.953Z,37.00
2023-11-30T07:09:19.477Z,42.90
2023-11-30T07:12:07.717Z,32.10
2023-11-30T07:14:55.528Z,40.60
2023-11-30T07:17:43.188Z,39.20
2023-11-30T07:20:31.638Z,37.20
2023-11-30T07:23:20.068Z,46.90
2023-11-30T07:26:15.500Z,45.30
2023-11-30T07:29:03.296Z,45.80
2023-11-30T07:31:52.542Z,42.40
2023-11-30T07:34:40.302Z,50.80
2023-11-30T07:37:27.975Z,49.40
2023-11-30T07:40:16.000Z,44.10
2023-11-30T07:43:03.329Z,48.40
2023-11-30T07:45:51.039Z,37.40
2023-11-30T07:48:38.832Z,35.80
2023-11-30T07:51:27.034Z,44.70
2023-11-30T07:54:14.761Z,50.00
2023-11-30T07:57:02.536Z,60.40
2023-11-30T07:59:50.589Z,48.30
2023-11-30T08:02:39.338Z,43.40
2023-11-30T08:05:27.199Z,49.10
2023-11-30T08:08:14.884Z,51.40
2023-11-30T08:11:04.439Z,55.10
2023-11-30T08:13:52.663Z,46.30
2023-11-30T08:16:41.831Z,54.30
2023-11-30T08:19:29.662Z,37.40
2023-11-30T08:22:17.220Z,49.20
2023-11-30T08:25:06.535Z,52.30
2023-11-30T08:27:55.095Z,47.90
2023-11-30T08:30:43.643Z,45.00
2023-11-30T08:33:31.453Z,43.50
2023-11-30T08:36:19.327Z,53.20
2023-11-30T08:39:07.257Z,50.80
2023-11-30T08:41:55.896Z,53.80
2023-11-30T08:44:43.623Z,56.90
2023-11-30T08:47:31.105Z,42.90
2023-11-30T08:50:19.239Z,44.20
2023-11-30T08:53:06.897Z,46.90
2023-11-30T08:55:54.796Z,50.10
2023-11-30T08:58:42.859Z,45.80
2023-11-30T09:01:31.072Z,46.70
2023-11-30T09:04:19.382Z,46.30
2023-11-30T09:07:07.145Z,47.50
2023-11-30T09:09:55.273Z,50.40
2023-11-30T09:12:43.062Z,50.50
2023-11-30T09:15:35.255Z,41.20
2023-11-30T09:18:23.005Z,53.50
2023-11-30T09:21:10.711Z,54.90
2023-11-30T09:23:59.918Z,50.80
2023-11-30T09:26:49.268Z,47.10
2023-11-30T09:29:38.197Z,45.60
2023-11-30T09:32:27.486Z,46.10
2023-11-30T09:35:15.929Z,47.30
2023-11-30T09:38:03.682Z,48.20
2023-11-30T09:40:53.285Z,51.10
2023-11-30T09:43:40.896Z,49.10
2023-11-30T09:46:28.699Z,50.60
2023-11-30T09:49:16.499Z,48.70
2023-11-30T09:52:04.393Z,52.60
2023-11-30T09:54:56.414Z,50.00
2023-11-30T09:57:44.060Z,52.40
2023-11-30T10:00:31.755Z,57.40
2023-11-30T10:03:21.302Z,51.40
2023-11-30T10:06:09.610Z,52.50
2023-11-30T10:09:03.168Z,53.00
2023-11-30T10:11:50.852Z,54.60
2023-11-30T10:14:39.022Z,67.80
2023-11-30T10:17:29.641Z,63.10
2023-11-30T10:20:20.001Z,58.50
2023-11-30T10:23:15.216Z,59.60
2023-11-30T10:26:03.930Z,54.10
2023-11-30T10:28:56.371Z,63.70
2023-11-30T10:31:45.062Z,66.40
2023-11-30T10:34:43.851Z,57.70
2023-11-30T10:37:35.592Z,66.30
2023-11-30T10:40:25.763Z,62.50
2023-11-30T10:43:13.601Z,71.00
2023-11-30T10:46:08.710Z,81.00
2023-11-30T10:48:56.595Z,65.50
2023-11-30T10:51:45.197Z,71.10
2023-11-30T10:54:53.710Z,56.60
2023-11-30T10:57:43.933Z,70.80
2023-11-30T11:00:36.011Z,70.30
2023-11-30T11:03:26.050Z,73.70
2023-11-30T11:06:16.291Z,72.00
2023-11-30T11:09:09.542Z,70.00
2023-11-30T11:12:02.630Z,70.70
2023-11-30T11:14:51.184Z,71.70
2023-11-30T11:17:50.675Z,68.70
2023-11-30T11:20:38.273Z,75.30
2023-11-30T11:23:35.708Z,74.20
2023-11-30T11:26:25.566Z,79.30
2023-11-30T11:29:24.177Z,78.70
2023-11-30T11:32:21.268Z,56.40
2023-11-30T11:35:12.037Z,73.80
2023-11-30T11:38:00.085Z,68.90
2023-11-30T11:40:48.034Z,59.20
2023-11-30T11:43:35.832Z,61.80
2023-11-30T11:46:23.826Z,69.90
2023-11-30T11:49:11.853Z,71.00
2023-11-30T11:51:59.710Z,65.40
2023-11-30T11:54:47.314Z,66.20
2023-11-30T11:57:46.108Z,63.50
2023-11-30T12:00:35.017Z,61.20
2023-11-30T12:03:22.681Z,59.20
2023-11-30T12:06:11.218Z,52.90
2023-11-30T12:09:13.886Z,52.50
2023-11-30T12:12:02.286Z,48.40
2023-11-30T12:14:50.132Z,50.20
2023-11-30T12:17:39.692Z,53.60
2023-11-30T12:20:27.512Z,52.20
2023-11-30T12:23:15.406Z,55.20
2023-11-30T12:26:03.162Z,48.30
2023-11-30T12:28:51.926Z,53.30
2023-11-30T12:31:39.964Z,51.60
2023-11-30T12:34:29.148Z,49.30
2023-11-30T12:37:16.747Z,46.40
2023-11-30T12:40:05.421Z,49.80
2023-11-30T12:42:53.390Z,51.20
2023-11-30T12:45:42.840Z,61.60
2023-11-30T12:48:30.454Z,51.80
2023-11-30T12:51:18.073Z,45.80
2023-11-30T12:54:05.833Z,51.70
2023-11-30T12:56:53.529Z,49.10
2023-11-30T12:59:41.521Z,43.90
2023-11-30T13:02:29.371Z,54.40
2023-11-30T13:05:17.754Z,52.60
2023-11-30T13:08:06.415Z,50.50
2023-11-30T13:10:53.812Z,53.10
2023-11-30T13:13:42.662Z,52.40
2023-11-30T13:16:32.906Z,56.30
2023-11-30T13:19:24.576Z,58.80
2023-11-30T13:22:12.971Z,52.20
2023-11-30T13:25:00.767Z,56.10
2023-11-30T13:27:49.001Z,53.10
2023-11-30T13:30:36.927Z,50.50
2023-11-30T13:33:24.769Z,48.40
2023-11-30T13:36:13.232Z,48.00
2023-11-30T13:39:01.773Z,48.80
2023-11-30T13:41:49.685Z,45.30
2023-11-30T13:44:37.247Z,56.60
2023-11-30T13:47:24.878Z,50.60
2023-11-30T13:50:20.747Z,52.10
2023-11-30T13:53:18.345Z,44.00
2023-11-30T13:56:06.653Z,46.90
2023-11-30T13:58:54.832Z,50.70
2023-11-30T14:01:43.134Z,47.20
2023-11-30T14:04:31.178Z,45.80
2023-11-30T14:07:18.826Z,53.40
2023-11-30T14:10:09.625Z,60.70
2023-11-30T14:12:57.173Z,61.10
2023-11-30T14:15:44.901Z,63.50
2023-11-30T14:18:33.027Z,61.70
2023-11-30T14:21:20.770Z,59.00
2023-11-30T14:24:09.204Z,61.10
2023-11-30T14:26:58.034Z,55.60
2023-11-30T14:29:45.560Z,56.70
2023-11-30T14:32:33.672Z,39.30
2023-11-30T14:35:21.350Z,47.80
2023-11-30T14:38:09.374Z,51.30
2023-11-30T14:40:57.401Z,50.50
2023-11-30T14:43:45.075Z,56.60
2023-11-30T14:46:33.054Z,53.30
2023-11-30T14:49:20.748Z,52.60
2023-11-30T14:52:08.823Z,48.70
2023-11-30T14:54:56.794Z,42.40
2023-11-30T14:57:45.063Z,43.70
2023-11-30T15:00:35.228Z,41.00
2023-11-30T15:03:22.639Z,41.30
2023-11-30T15:06:10.571Z,42.70
2023-11-30T15:08:58.548Z,41.80
2023-11-30T15:11:46.409Z,41.50
2023-11-30T15:14:34.285Z,42.40
2023-11-30T15:17:21.825Z,36.60
2023-11-30T15:20:11.785Z,35.20
2023-11-30T15:22:59.841Z,45.40
2023-11-30T15:25:47.988Z,50.30
2023-11-30T15:28:35.685Z,48.30
2023-11-30T15:31:24.843Z,43.60
2023-11-30T15:34:12.823Z,44.70
2023-11-30T15:37:00.654Z,50.50
2023-11-30T15:39:48.946Z,46.80
2023-11-30T15:42:37.730Z,48.50
2023-11-30T15:45:27.427Z,44.70
2023-11-30T15:48:16.338Z,46.70
2023-11-30T15:51:04.855Z,42.20
2023-11-30T15:53:52.826Z,48.40
2023-11-30T15:56:40.870Z,44.30
2023-11-30T15:59:28.506Z,42.40
2023-11-30T16:02:16.642Z,44.70
2023-11-30T16:05:05.363Z,49.20
2023-11-30T16:07:53.143Z,55.20
2023-11-30T16:10:41.209Z,47.00
2023-11-30T16:13:29.263Z,56.00
2023-11-30T16:16:17.254Z,47.80
2023-11-30T16:19:04.970Z,46.40
2023-11-30T16:21:53.538Z,42.90
2023-11-30T16:24:41.302Z,45.50
2023-11-30T16:27:30.657Z,35.80
2023-11-30T16:30:19.767Z,40.50
2023-11-30T16:33:07.597Z,39.60
2023-11-30T16:35:55.547Z,38.30
2023-11-30T16:38:43.616Z,43.20
2023-11-30T16:41:31.492Z,40.70
2023-11-30T16:44:19.337Z,38.20
2023-11-30T16:47:07.479Z,36.80
2023-11-30T16:49:55.150Z,40.20
2023-11-30T16:52:43.834Z,45.90
2023-11-30T16:55:31.732Z,44.00
2023-11-30T16:58:19.365Z,47.00
2023-11-30T17:01:09.099Z,42.00
2023-11-30T17:03:57.075Z,43.40
2023-11-30T17:06:44.808Z,38.20
2023-11-30T17:09:34.216Z,44.60
2023-11-30T17:12:22.982Z,47.00
2023-11-30T17:15:10.966Z,40.90
2023-11-30T17:17:58.760Z,41.00
2023-11-30T17:20:46.651Z,36.20
2023-11-30T17:23:34.493Z,44.10
2023-11-30T17:26:22.290Z,41.10
2023-11-30T17:29:09.944Z,53.20
2023-11-30T17:31:57.998Z,55.50
2023-11-30T17:34:45.855Z,54.50
2023-11-30T17:37:33.785Z,51.60
2023-11-30T17:40:21.711Z,54.30
2023-11-30T17:43:09.604Z,42.60
2023-11-30T17:45:57.822Z,44.30
2023-11-30T17:48:46.543Z,43.60
2023-11-30T17:51:34.566Z,39.50
2023-11-30T17:54:22.390Z,32.30
2023-11-30T17:57:10.866Z,40.50
2023-11-30T17:59:59.024Z,47.60
2023-11-30T18:02:46.659Z,44.70
2023-11-30T18:05:34.647Z,41.20
2023-11-30T18:08:23.349Z,46.20
2023-11-30T18:11:11.056Z,38.80
2023-11-30T18:13:59.055Z,39.40
2023-11-30T18:16:47.077Z,35.60
2023-11-30T18:19:34.738Z,36.20
2023-11-30T18:22:22.387Z,35.50
2023-11-30T18:25:10.585Z,32.90
2023-11-30T18:27:58.116Z,36.10
2023-11-30T18:30:46.711Z,32.70
2023-11-30T18:33:34.647Z,25.00
2023-11-30T18:36:22.614Z,34.10
2023-11-30T18:39:10.382Z,35.10
2023-11-30T18:41:58.293Z,33.30
2023-11-30T18:44:46.133Z,30.10
2023-11-30T18:47:33.611Z,30.10
2023-11-30T18:50:21.680Z,26.40
2023-11-30T18:53:09.748Z,34.60
2023-11-30T18:55:57.517Z,37.10
2023-11-30T18:58:45.613Z,36.50
2023-11-30T19:01:33.558Z,35.50
2023-11-30T19:04:21.593Z,32.50
2023-11-30T19:07:11.635Z,34.90
2023-11-30T19:09:59.658Z,32.20
2023-11-30T19:12:47.229Z,27.90
2023-11-30T19:15:38.817Z,31.90
2023-11-30T19:18:27.067Z,30.80
2023-11-30T19:21:15.210Z,25.20
2023-11-30T19:24:03.200Z,22.30
2023-11-30T19:26:50.901Z,24.80
2023-11-30T19:29:39.063Z,21.10
2023-11-30T19:32:27.202Z,24.90
2023-11-30T19:35:15.231Z,25.40
2023-11-30T19:38:03.759Z,18.80
2023-11-30T19:40:57.189Z,26.30
2023-11-30T19:43:45.179Z,28.10
2023-11-30T19:46:33.070Z,22.30
2023-11-30T19:49:21.196Z,25.70
2023-11-30T19:52:09.109Z,22.40
2023-11-30T19:54:56.831Z,21.40
2023-11-30T19:57:44.381Z,19.80
2023-11-30T20:00:32.385Z,20.80
2023-11-30T20:03:20.350Z,17.50
2023-11-30T20:06:08.328Z,22.70
2023-11-30T20:08:56.605Z,24.80
2023-11-30T20:11:44.841Z,19.80
2023-11-30T20:14:32.589Z,17.30
2023-11-30T20:17:20.916Z,16.60
2023-11-30T20:20:09.878Z,16.30
2023-11-30T20:22:58.784Z,18.60
2023-11-30T20:25:46.806Z,21.80
2023-11-30T20:28:34.747Z,22.20
2023-11-30T20:31:22.866Z,22.00
2023-11-30T20:34:10.730Z,21.60
2023-11-30T20:36:58.875Z,19.10
2023-11-30T20:39:47.413Z,19.80
2023-11-30T20:42:35.518Z,20.30
2023-11-30T20:45:23.430Z,21.50
2023-11-30T20:48:10.749Z,22.60
2023-11-30T20:50:59.046Z,21.90
2023-11-30T20:53:47.351Z,24.10
2023-11-30T20:56:36.024Z,22.60
2023-11-30T20:59:25.078Z,23.30
2023-11-30T21:02:14.708Z,19.60
2023-11-30T21:05:04.002Z,22.60
2023-11-30T21:07:51.909Z,18.80
2023-11-30T21:10:39.616Z,15.90
2023-11-30T21:13:28.598Z,22.20
2023-11-30T21:16:19.856Z,23.60
2023-11-30T21:19:08.775Z,21.20
2023-11-30T21:21:56.809Z,19.10
2023-11-30T21:24:46.208Z,19.50
2023-11-30T21:27:34.371Z,16.50
2023-11-30T21:30:24.504Z,18.00
2023-11-30T21:33:12.518Z,15.80
2023-11-30T21:36:00.358Z,17.70
2023-11-30T21:38:48.367Z,22.80
2023-11-30T21:41:36.559Z,22.50
2023-11-30T21:44:24.604Z,16.40
2023-11-30T21:47:14.963Z,23.60
2023-11-30T21:50:19.400Z,16.60
2023-11-30T21:53:07.552Z,19.10
2023-11-30T21:55:56.837Z,18.40
2023-11-30T21:58:44.574Z,16.70
2023-11-30T22:01:32.347Z,22.70
2023-11-30T22:04:21.156Z,22.60
2023-11-30T22:07:09.164Z,25.50
2023-11-30T22:09:58.416Z,18.00
2023-11-30T22:12:46.358Z,15.90
2023-11-30T22:15:34.156Z,18.70
2023-11-30T22:18:21.896Z,20.30
2023-11-30T22:21:09.572Z,18.10
2023-11-30T22:23:57.329Z,23.20
2023-11-30T22:26:45.027Z,22.20
2023-11-30T22:29:32.829Z,24.40
2023-11-30T22:32:20.448Z,22.70
2023-11-30T22:35:08.301Z,19.90
2023-11-30T22:37:56.405Z,21.90
2023-11-30T22:40:44.165Z,18.40
2023-11-30T22:43:32.025Z,21.60
2023-11-30T22:46:20.347Z,26.60
2023-11-30T22:49:08.154Z,26.00
2023-11-30T22:51:57.937Z,27.50
2023-11-30T22:54:45.810Z,29.90
2023-11-30T22:57:34.442Z,23.40
2023-11-30T23:00:25.537Z,20.90
2023-11-30T23:03:13.724Z,20.10
2023-11-30T23:06:01.466Z,22.50
2023-11-30T23:08:49.248Z,19.90
2023-11-30T23:11:36.856Z,19.90
2023-11-30T23:14:24.567Z,24.20
2023-11-30T23:17:12.384Z,18.50
2023-11-30T23:20:00.039Z,22.60
2023-11-30T23:22:50.275Z,23.10
2023-11-30T23:25:38.063Z,17.50
2023-11-30T23:28:27.131Z,18.40
2023-11-30T23:31:15.220Z,20.60
2023-11-30T23:34:02.898Z,17.70
2023-11-30T23:36:50.784Z,18.90
2023-11-30T23:39:38.975Z,15.80
2023-11-30T23:42:27.118Z,19.80
2023-11-30T23:45:14.774Z,22.90
2023-11-30T23:48:02.252Z,17.80
2023-11-30T23:50:50.060Z,15.90
2023-11-30T23:53:38.760Z,13.80
2023-11-30T23:56:27.783Z,15.40
2023-11-30T23:59:15.522Z,17.00
